createdAt,value
2023-02-16T00:00:17.994Z,65.90
2023-02-16T00:05:42.095Z,53.20
2023-02-16T00:11:06.619Z,56.90
2023-02-16T00:16:21.754Z,56.70
2023-02-16T00:21:28.320Z,63.20
2023-02-16T00:26:34.725Z,55.20
2023-02-16T00:31:38.516Z,66.80
2023-02-16T00:36:42.346Z,101.90
2023-02-16T00:41:54.386Z,75.80
2023-02-16T00:47:01.577Z,94.90
2023-02-16T00:52:37.925Z,58.90
2023-02-16T00:57:48.140Z,62.90
2023-02-16T01:02:53.906Z,56.20
2023-02-16T01:08:17.624Z,54.70
2023-02-16T01:18:25.057Z,93.40
2023-02-16T01:23:29.804Z,77.40
2023-02-16T01:28:39.711Z,112.70
2023-02-16T01:33:43.727Z,89.70
2023-02-16T01:38:47.437Z,80.80
2023-02-16T01:43:59.631Z,60.00
2023-02-16T01:49:03.278Z,60.90
2023-02-16T01:54:23.567Z,54.60
2023-02-16T01:59:50.389Z,75.80
2023-02-16T02:05:38.644Z,58.50
2023-02-16T02:10:55.788Z,61.50
2023-02-16T02:16:00.489Z,58.30
2023-02-16T02:21:55.979Z,59.10
2023-02-16T02:27:11.920Z,51.70
2023-02-16T02:32:47.560Z,52.60
2023-02-16T02:38:24.438Z,52.30
2023-02-16T02:43:53.176Z,56.30
2023-02-16T02:48:58.483Z,64.90
2023-02-16T02:54:26.756Z,66.80
2023-02-16T02:59:56.409Z,58.30
2023-02-16T03:05:02.938Z,62.30
2023-02-16T03:10:27.152Z,55.30
2023-02-16T03:15:31.837Z,80.20
2023-02-16T03:20:54.184Z,72.50
2023-02-16T03:26:16.427Z,72.60
2023-02-16T03:31:28.245Z,66.00
2023-02-16T03:36:35.035Z,62.30
2023-02-16T03:41:50.159Z,62.00
2023-02-16T03:46:54.002Z,55.00
2023-02-16T03:51:57.661Z,57.10
2023-02-16T03:57:01.297Z,66.50
2023-02-16T04:02:05.675Z,61.60
2023-02-16T04:07:09.518Z,66.00
2023-02-16T04:12:32.317Z,75.30
2023-02-16T04:17:37.364Z,61.80
2023-02-16T04:22:41.755Z,66.70
2023-02-16T04:27:46.306Z,57.40
2023-02-16T04:32:50.226Z,63.20
2023-02-16T04:37:53.885Z,64.90
2023-02-16T04:42:58.571Z,52.40
2023-02-16T04:48:02.142Z,48.30
2023-02-16T04:53:05.826Z,50.50
2023-02-16T04:58:09.570Z,57.00
2023-02-16T05:03:13.304Z,64.70
2023-02-16T05:08:20.723Z,52.70
2023-02-16T05:13:43.232Z,49.70
2023-02-16T05:18:47.191Z,53.90
2023-02-16T05:23:50.892Z,68.40
2023-02-16T05:28:55.110Z,63.20
2023-02-16T05:33:58.870Z,83.40
2023-02-16T05:39:02.664Z,61.60
2023-02-16T05:44:09.247Z,64.70
2023-02-16T05:49:14.606Z,62.60
2023-02-16T05:54:18.619Z,58.00
2023-02-16T05:59:22.358Z,53.30
2023-02-16T06:04:26.183Z,61.30
2023-02-16T06:09:32.390Z,53.40
2023-02-16T06:14:36.160Z,56.40
2023-02-16T06:19:39.830Z,61.80
2023-02-16T06:24:43.501Z,93.10
2023-02-16T06:29:47.110Z,62.70
2023-02-16T06:34:50.803Z,57.70
2023-02-16T06:39:54.542Z,56.70
2023-02-16T06:44:58.130Z,47.80
2023-02-16T06:50:02.259Z,53.90
2023-02-16T06:55:07.013Z,55.10
2023-02-16T07:00:11.031Z,53.60
2023-02-16T07:05:14.903Z,54.70
2023-02-16T07:10:20.450Z,54.80
2023-02-16T07:15:24.145Z,63.70
2023-02-16T07:20:30.940Z,62.90
2023-02-16T07:25:36.130Z,60.80
2023-02-16T07:30:41.417Z,65.40
2023-02-16T07:35:45.214Z,80.00
2023-02-16T07:40:48.869Z,78.90
2023-02-16T07:45:52.983Z,66.20
2023-02-16T07:50:56.977Z,66.70
2023-02-16T07:56:00.751Z,61.40
2023-02-16T08:01:10.718Z,67.30
2023-02-16T08:06:15.800Z,65.90
2023-02-16T08:11:24.746Z,69.80
2023-02-16T08:16:29.808Z,67.20
2023-02-16T08:21:34.767Z,69.40
2023-02-16T08:26:41.365Z,73.80
2023-02-16T08:31:47.530Z,69.90
2023-02-16T08:36:57.092Z,61.00
2023-02-16T08:42:02.186Z,61.10
2023-02-16T08:47:12.536Z,59.70
2023-02-16T08:52:17.517Z,57.30
2023-02-16T08:57:22.837Z,57.80
2023-02-16T09:02:26.579Z,54.10
2023-02-16T09:07:37.270Z,56.30
2023-02-16T09:12:41.251Z,54.40
2023-02-16T09:17:45.081Z,51.50
2023-02-16T09:22:48.844Z,48.70
2023-02-16T09:27:53.523Z,44.00
2023-02-16T09:33:00.841Z,43.90
2023-02-16T09:38:04.963Z,36.50
2023-02-16T09:43:59.028Z,29.50
2023-02-16T09:49:15.633Z,20.40
2023-02-16T09:54:37.244Z,22.60
2023-02-16T09:59:59.704Z,19.50
2023-02-16T10:10:35.604Z,21.40
2023-02-16T10:15:41.199Z,20.70
2023-02-16T10:20:47.675Z,21.50
2023-02-16T10:25:57.951Z,21.00
2023-02-16T10:31:06.410Z,20.40
2023-02-16T10:36:32.546Z,20.00
2023-02-16T10:41:46.548Z,19.00
2023-02-16T10:47:04.469Z,18.40
2023-02-16T10:52:08.869Z,19.70
2023-02-16T10:57:34.937Z,17.50
2023-02-16T11:02:48.126Z,18.10
2023-02-16T11:07:58.993Z,18.20
2023-02-16T11:13:06.181Z,19.10
2023-02-16T11:18:30.853Z,19.30
2023-02-16T11:24:05.336Z,19.60
2023-02-16T11:29:34.804Z,19.70
2023-02-16T11:35:16.225Z,19.50
2023-02-16T17:00:20.586Z,23.10
2023-02-16T17:05:27.257Z,23.60
2023-02-16T17:10:35.872Z,25.50
2023-02-16T17:15:48.903Z,24.90
2023-02-16T17:20:55.205Z,26.80
2023-02-16T17:26:00.531Z,26.50
2023-02-16T17:32:18.715Z,26.80
2023-02-16T17:38:11.033Z,25.90
2023-02-16T17:57:59.964Z,31.40
2023-02-16T18:03:07.153Z,30.80
2023-02-16T18:15:04.360Z,34.00
2023-02-16T18:20:14.889Z,32.90
2023-02-16T18:25:28.292Z,33.90
2023-02-16T18:30:48.448Z,33.40
2023-02-16T18:35:58.669Z,35.60
2023-02-16T18:41:04.248Z,33.10
2023-02-16T18:46:12.398Z,33.50
2023-02-16T18:51:18.816Z,37.80
2023-02-16T18:56:31.660Z,35.60
2023-02-16T19:01:37.147Z,35.00
2023-02-16T19:07:38.594Z,37.40
2023-02-16T19:12:44.320Z,37.40
2023-02-16T19:17:51.065Z,35.40
2023-02-16T19:22:57.707Z,30.20
2023-02-16T19:28:10.589Z,34.90
2023-02-16T19:33:19.842Z,35.60
2023-02-16T19:38:25.448Z,35.70
2023-02-16T19:43:30.369Z,36.40
2023-02-16T19:48:37.902Z,48.60
2023-02-16T19:53:47.253Z,75.00
2023-02-16T19:58:55.415Z,38.90
2023-02-16T20:04:03.774Z,37.90
2023-02-16T20:09:14.741Z,34.20
2023-02-16T20:14:25.853Z,36.20
2023-02-16T20:19:36.270Z,35.90
2023-02-16T20:24:42.474Z,35.00
2023-02-16T20:29:47.650Z,35.00
2023-02-16T20:34:56.512Z,33.50
2023-02-16T20:40:02.656Z,34.80
2023-02-16T20:45:10.041Z,34.00
2023-02-16T20:50:17.383Z,35.60
2023-02-16T20:55:22.866Z,35.40
2023-02-16T21:51:38.517Z,36.40
2023-02-16T21:57:30.802Z,34.80
2023-02-16T22:02:34.960Z,33.50
2023-02-16T22:07:39.612Z,32.00
2023-02-16T22:12:43.609Z,29.90
2023-02-16T22:17:49.772Z,30.70
2023-02-16T22:22:53.873Z,18.10
2023-02-16T22:27:57.733Z,30.30
2023-02-16T22:33:01.855Z,31.20
2023-02-16T22:38:05.632Z,32.10
2023-02-16T22:43:09.591Z,29.80
2023-02-16T22:48:13.391Z,29.40
2023-02-16T22:53:17.413Z,29.70
2023-02-16T22:58:21.707Z,31.40
2023-02-16T23:03:25.621Z,29.40
2023-02-16T23:08:29.331Z,31.30
2023-02-16T23:13:34.863Z,34.80
2023-02-16T23:18:40.139Z,33.60
2023-02-16T23:23:44.181Z,38.80
2023-02-16T23:28:55.906Z,38.10
2023-02-16T23:34:02.119Z,39.80
2023-02-16T23:39:09.760Z,41.20
2023-02-16T23:44:15.680Z,42.80
2023-02-16T23:49:41.147Z,37.70
2023-02-16T23:54:44.943Z,37.70
2023-02-16T23:59:48.688Z,39.50
